sensor_id;sensor_type;location;lat;lon;timestamp;temperature;humidity
21184;DHT22;18176;49.502;11.754;2022-11-15T00:01:31;4.10;99.90
21184;DHT22;18176;49.502;11.754;2022-11-15T00:05:51;4.00;99.90
21184;DHT22;18176;49.502;11.754;2022-11-15T00:10:10;3.90;99.90
21184;DHT22;18176;49.502;11.754;2022-11-15T00:14:28;3.80;99.90
21184;DHT22;18176;49.502;11.754;2022-11-15T00:18:50;3.70;99.90
21184;DHT22;18176;49.502;11.754;2022-11-15T00:23:09;3.80;99.90
21184;DHT22;18176;49.502;11.754;2022-11-15T00:27:28;4.00;99.90
21184;DHT22;18176;49.502;11.754;2022-11-15T00:31:47;4.20;99.90
21184;DHT22;18176;49.502;11.754;2022-11-15T00:36:09;4.20;99.90
21184;DHT22;18176;49.502;11.754;2022-11-15T00:40:28;4.30;99.90
21184;DHT22;18176;49.502;11.754;2022-11-15T00:44:47;4.40;99.90
21184;DHT22;18176;49.502;11.754;2022-11-15T00:49:06;4.50;99.90
21184;DHT22;18176;49.502;11.754;2022-11-15T00:53:27;4.50;99.90
21184;DHT22;18176;49.502;11.754;2022-11-15T00:57:47;4.50;99.90
21184;DHT22;18176;49.502;11.754;2022-11-15T01:02:05;4.60;99.90
21184;DHT22;18176;49.502;11.754;2022-11-15T01:06:24;4.60;99.90
21184;DHT22;18176;49.502;11.754;2022-11-15T01:10:45;4.70;99.90
21184;DHT22;18176;49.502;11.754;2022-11-15T01:15:05;4.70;99.90
21184;DHT22;18176;49.502;11.754;2022-11-15T01:19:25;4.70;99.90
21184;DHT22;18176;49.502;11.754;2022-11-15T01:23:43;4.70;99.90
21184;DHT22;18176;49.502;11.754;2022-11-15T01:28:05;4.70;99.90
21184;DHT22;18176;49.502;11.754;2022-11-15T01:32:24;4.70;99.90
21184;DHT22;18176;49.502;11.754;2022-11-15T01:36:42;4.80;99.90
21184;DHT22;18176;49.502;11.754;2022-11-15T01:41:01;4.80;99.90
21184;DHT22;18176;49.502;11.754;2022-11-15T01:45:23;4.80;99.90
21184;DHT22;18176;49.502;11.754;2022-11-15T01:49:49;4.80;99.90
21184;DHT22;18176;49.502;11.754;2022-11-15T01:54:15;4.90;99.90
21184;DHT22;18176;49.502;11.754;2022-11-15T01:58:38;4.90;99.90
21184;DHT22;18176;49.502;11.754;2022-11-15T02:03:02;4.80;99.90
21184;DHT22;18176;49.502;11.754;2022-11-15T02:07:23;4.80;99.90
21184;DHT22;18176;49.502;11.754;2022-11-15T02:11:44;4.60;99.90
21184;DHT22;18176;49.502;11.754;2022-11-15T02:16:11;4.40;99.90
21184;DHT22;18176;49.502;11.754;2022-11-15T02:21:09;4.20;99.90
21184;DHT22;18176;49.502;11.754;2022-11-15T02:25:39;4.00;99.90
21184;DHT22;18176;49.502;11.754;2022-11-15T02:30:22;3.90;99.90
21184;DHT22;18176;49.502;11.754;2022-11-15T02:34:50;3.80;99.90
21184;DHT22;18176;49.502;11.754;2022-11-15T02:39:18;3.60;99.90
21184;DHT22;18176;49.502;11.754;2022-11-15T02:43:46;3.50;99.90
21184;DHT22;18176;49.502;11.754;2022-11-15T02:48:18;3.40;99.90
21184;DHT22;18176;49.502;11.754;2022-11-15T02:52:39;3.30;99.90
21184;DHT22;18176;49.502;11.754;2022-11-15T02:57:00;3.30;99.90
21184;DHT22;18176;49.502;11.754;2022-11-15T03:01:33;3.20;99.90
21184;DHT22;18176;49.502;11.754;2022-11-15T03:06:10;3.10;99.90
21184;DHT22;18176;49.502;11.754;2022-11-15T03:10:45;3.00;99.90
21184;DHT22;18176;49.502;11.754;2022-11-15T03:15:14;2.90;99.90
21184;DHT22;18176;49.502;11.754;2022-11-15T03:19:42;2.80;99.90
21184;DHT22;18176;49.502;11.754;2022-11-15T03:24:07;2.80;99.90
21184;DHT22;18176;49.502;11.754;2022-11-15T03:28:34;2.80;99.90
21184;DHT22;18176;49.502;11.754;2022-11-15T03:32:58;2.80;99.90
21184;DHT22;18176;49.502;11.754;2022-11-15T03:37:25;2.80;99.90
21184;DHT22;18176;49.502;11.754;2022-11-15T03:41:56;2.80;99.90
21184;DHT22;18176;49.502;11.754;2022-11-15T03:46:25;2.70;99.90
21184;DHT22;18176;49.502;11.754;2022-11-15T03:50:47;2.60;99.90
21184;DHT22;18176;49.502;11.754;2022-11-15T03:55:09;2.60;99.90
21184;DHT22;18176;49.502;11.754;2022-11-15T03:59:33;2.80;99.90
21184;DHT22;18176;49.502;11.754;2022-11-15T04:03:52;2.80;99.90
21184;DHT22;18176;49.502;11.754;2022-11-15T04:08:10;2.90;99.90
21184;DHT22;18176;49.502;11.754;2022-11-15T04:12:29;2.90;99.90
21184;DHT22;18176;49.502;11.754;2022-11-15T04:16:54;2.90;99.90
21184;DHT22;18176;49.502;11.754;2022-11-15T04:21:12;2.90;99.90
21184;DHT22;18176;49.502;11.754;2022-11-15T04:25:44;2.90;99.90
21184;DHT22;18176;49.502;11.754;2022-11-15T04:30:06;2.90;99.90
21184;DHT22;18176;49.502;11.754;2022-11-15T04:34:28;2.90;99.90
21184;DHT22;18176;49.502;11.754;2022-11-15T04:38:48;2.90;99.90
21184;DHT22;18176;49.502;11.754;2022-11-15T04:43:06;2.80;99.90
21184;DHT22;18176;49.502;11.754;2022-11-15T04:47:25;2.80;99.90
21184;DHT22;18176;49.502;11.754;2022-11-15T04:51:48;2.80;99.90
21184;DHT22;18176;49.502;11.754;2022-11-15T04:56:06;2.70;99.90
21184;DHT22;18176;49.502;11.754;2022-11-15T05:00:26;2.70;99.90
21184;DHT22;18176;49.502;11.754;2022-11-15T05:04:45;2.60;99.90
21184;DHT22;18176;49.502;11.754;2022-11-15T05:09:07;2.50;99.90
21184;DHT22;18176;49.502;11.754;2022-11-15T05:13:25;2.40;99.90
21184;DHT22;18176;49.502;11.754;2022-11-15T05:17:45;2.40;99.90
21184;DHT22;18176;49.502;11.754;2022-11-15T05:22:04;2.30;99.90
21184;DHT22;18176;49.502;11.754;2022-11-15T05:26:25;2.30;99.90
21184;DHT22;18176;49.502;11.754;2022-11-15T05:30:44;2.30;99.90
21184;DHT22;18176;49.502;11.754;2022-11-15T05:35:05;2.20;99.90
21184;DHT22;18176;49.502;11.754;2022-11-15T05:39:27;2.20;99.90
21184;DHT22;18176;49.502;11.754;2022-11-15T05:43:48;2.20;99.90
21184;DHT22;18176;49.502;11.754;2022-11-15T05:48:09;2.20;99.90
21184;DHT22;18176;49.502;11.754;2022-11-15T05:52:31;2.20;99.90
21184;DHT22;18176;49.502;11.754;2022-11-15T05:56:54;2.30;99.90
21184;DHT22;18176;49.502;11.754;2022-11-15T06:01:15;2.30;99.90
21184;DHT22;18176;49.502;11.754;2022-11-15T06:05:34;2.30;99.90
21184;DHT22;18176;49.502;11.754;2022-11-15T06:09:53;2.30;99.90
21184;DHT22;18176;49.502;11.754;2022-11-15T06:14:12;2.40;99.90
21184;DHT22;18176;49.502;11.754;2022-11-15T06:18:35;2.40;99.90
21184;DHT22;18176;49.502;11.754;2022-11-15T06:22:57;2.40;99.90
21184;DHT22;18176;49.502;11.754;2022-11-15T06:27:16;2.40;99.90
21184;DHT22;18176;49.502;11.754;2022-11-15T06:31:35;2.40;99.90
21184;DHT22;18176;49.502;11.754;2022-11-15T06:36:00;2.50;99.90
21184;DHT22;18176;49.502;11.754;2022-11-15T06:40:19;2.60;99.90
21184;DHT22;18176;49.502;11.754;2022-11-15T06:44:38;2.60;99.90
21184;DHT22;18176;49.502;11.754;2022-11-15T06:48:57;3.10;99.90
21184;DHT22;18176;49.502;11.754;2022-11-15T06:53:26;3.20;99.90
21184;DHT22;18176;49.502;11.754;2022-11-15T06:57:47;3.30;99.90
21184;DHT22;18176;49.502;11.754;2022-11-15T07:02:10;3.20;99.90
21184;DHT22;18176;49.502;11.754;2022-11-15T07:06:30;3.10;99.90
21184;DHT22;18176;49.502;11.754;2022-11-15T07:11:04;3.10;99.90
21184;DHT22;18176;49.502;11.754;2022-11-15T07:15:29;3.10;99.90
21184;DHT22;18176;49.502;11.754;2022-11-15T07:19:48;3.00;99.90
21184;DHT22;18176;49.502;11.754;2022-11-15T07:24:07;3.10;99.90
21184;DHT22;18176;49.502;11.754;2022-11-15T07:28:29;3.10;99.90
21184;DHT22;18176;49.502;11.754;2022-11-15T07:32:52;3.20;99.90
21184;DHT22;18176;49.502;11.754;2022-11-15T07:37:13;3.30;99.90
21184;DHT22;18176;49.502;11.754;2022-11-15T07:41:32;3.40;99.90
21184;DHT22;18176;49.502;11.754;2022-11-15T07:45:56;3.50;99.90
21184;DHT22;18176;49.502;11.754;2022-11-15T07:50:18;3.60;99.90
21184;DHT22;18176;49.502;11.754;2022-11-15T07:54:38;3.70;99.90
21184;DHT22;18176;49.502;11.754;2022-11-15T07:58:58;4.00;99.90
21184;DHT22;18176;49.502;11.754;2022-11-15T08:03:26;4.10;99.90
21184;DHT22;18176;49.502;11.754;2022-11-15T08:07:46;4.20;99.90
21184;DHT22;18176;49.502;11.754;2022-11-15T08:12:07;4.40;99.90
21184;DHT22;18176;49.502;11.754;2022-11-15T08:16:26;4.50;99.90
21184;DHT22;18176;49.502;11.754;2022-11-15T08:20:47;4.90;99.90
21184;DHT22;18176;49.502;11.754;2022-11-15T08:25:06;5.10;99.90
21184;DHT22;18176;49.502;11.754;2022-11-15T08:29:26;5.40;99.90
21184;DHT22;18176;49.502;11.754;2022-11-15T08:33:45;5.50;99.90
21184;DHT22;18176;49.502;11.754;2022-11-15T08:38:07;5.60;99.90
21184;DHT22;18176;49.502;11.754;2022-11-15T08:42:27;5.90;99.90
21184;DHT22;18176;49.502;11.754;2022-11-15T08:46:45;6.30;99.90
21184;DHT22;18176;49.502;11.754;2022-11-15T08:51:05;6.50;99.90
21184;DHT22;18176;49.502;11.754;2022-11-15T08:55:39;6.80;99.90
21184;DHT22;18176;49.502;11.754;2022-11-15T08:59:59;7.10;99.90
21184;DHT22;18176;49.502;11.754;2022-11-15T09:04:19;7.50;99.90
21184;DHT22;18176;49.502;11.754;2022-11-15T09:08:38;7.90;99.90
21184;DHT22;18176;49.502;11.754;2022-11-15T09:13:07;8.30;99.90
21184;DHT22;18176;49.502;11.754;2022-11-15T09:17:29;8.80;99.90
21184;DHT22;18176;49.502;11.754;2022-11-15T09:21:49;9.20;99.90
21184;DHT22;18176;49.502;11.754;2022-11-15T09:26:09;9.70;99.90
21184;DHT22;18176;49.502;11.754;2022-11-15T09:30:32;10.00;99.90
21184;DHT22;18176;49.502;11.754;2022-11-15T09:46:09;10.80;99.90
21184;DHT22;18176;49.502;11.754;2022-11-15T09:56:26;11.20;99.90
21184;DHT22;18176;49.502;11.754;2022-11-15T10:00:34;11.30;99.90
21184;DHT22;18176;49.502;11.754;2022-11-15T10:04:49;11.50;99.90
21184;DHT22;18176;49.502;11.754;2022-11-15T10:08:55;11.70;99.90
21184;DHT22;18176;49.502;11.754;2022-11-15T10:12:59;11.80;99.90
21184;DHT22;18176;49.502;11.754;2022-11-15T10:17:21;12.10;99.90
21184;DHT22;18176;49.502;11.754;2022-11-15T10:21:58;12.40;99.90
21184;DHT22;18176;49.502;11.754;2022-11-15T10:26:10;12.60;99.90
21184;DHT22;18176;49.502;11.754;2022-11-15T10:30:17;13.10;99.90
21184;DHT22;18176;49.502;11.754;2022-11-15T10:34:23;13.50;99.90
21184;DHT22;18176;49.502;11.754;2022-11-15T10:38:29;13.70;99.90
21184;DHT22;18176;49.502;11.754;2022-11-15T10:42:30;14.10;99.90
21184;DHT22;18176;49.502;11.754;2022-11-15T10:46:32;14.40;99.90
21184;DHT22;18176;49.502;11.754;2022-11-15T10:50:44;14.60;99.90
21184;DHT22;18176;49.502;11.754;2022-11-15T10:54:51;14.90;99.90
21184;DHT22;18176;49.502;11.754;2022-11-15T10:58:58;14.90;99.90
21184;DHT22;18176;49.502;11.754;2022-11-15T11:03:21;15.20;99.90
21184;DHT22;18176;49.502;11.754;2022-11-15T11:07:34;15.30;99.90
21184;DHT22;18176;49.502;11.754;2022-11-15T11:11:47;15.40;99.90
21184;DHT22;18176;49.502;11.754;2022-11-15T11:15:55;15.40;99.90
21184;DHT22;18176;49.502;11.754;2022-11-15T11:20:10;15.40;99.90
21184;DHT22;18176;49.502;11.754;2022-11-15T11:24:25;15.20;99.90
21184;DHT22;18176;49.502;11.754;2022-11-15T11:28:41;15.30;99.90
21184;DHT22;18176;49.502;11.754;2022-11-15T11:32:58;15.90;99.90
21184;DHT22;18176;49.502;11.754;2022-11-15T11:37:14;16.20;99.90
21184;DHT22;18176;49.502;11.754;2022-11-15T11:41:36;16.50;99.90
21184;DHT22;18176;49.502;11.754;2022-11-15T11:46:04;16.80;99.90
21184;DHT22;18176;49.502;11.754;2022-11-15T11:50:15;16.80;99.90
21184;DHT22;18176;49.502;11.754;2022-11-15T11:54:22;16.90;99.90
21184;DHT22;18176;49.502;11.754;2022-11-15T11:58:34;17.10;99.90
21184;DHT22;18176;49.502;11.754;2022-11-15T12:02:43;17.50;99.90
21184;DHT22;18176;49.502;11.754;2022-11-15T12:06:50;17.90;99.90
21184;DHT22;18176;49.502;11.754;2022-11-15T12:11:00;18.70;99.90
21184;DHT22;18176;49.502;11.754;2022-11-15T12:15:12;19.00;99.90
21184;DHT22;18176;49.502;11.754;2022-11-15T12:19:18;19.50;99.90
21184;DHT22;18176;49.502;11.754;2022-11-15T12:23:22;19.10;99.90
21184;DHT22;18176;49.502;11.754;2022-11-15T12:27:31;18.90;99.90
21184;DHT22;18176;49.502;11.754;2022-11-15T12:31:39;18.40;99.90
21184;DHT22;18176;49.502;11.754;2022-11-15T12:35:44;19.00;99.90
21184;DHT22;18176;49.502;11.754;2022-11-15T12:40:18;19.20;99.90
21184;DHT22;18176;49.502;11.754;2022-11-15T12:48:59;18.00;99.90
21184;DHT22;18176;49.502;11.754;2022-11-15T12:53:28;17.70;99.90
21184;DHT22;18176;49.502;11.754;2022-11-15T12:57:44;17.50;99.90
21184;DHT22;18176;49.502;11.754;2022-11-15T13:01:59;17.50;99.90
21184;DHT22;18176;49.502;11.754;2022-11-15T13:06:06;18.10;99.90
21184;DHT22;18176;49.502;11.754;2022-11-15T13:10:32;18.90;99.90
21184;DHT22;18176;49.502;11.754;2022-11-15T13:14:46;19.10;99.90
21184;DHT22;18176;49.502;11.754;2022-11-15T13:18:54;19.00;99.90
21184;DHT22;18176;49.502;11.754;2022-11-15T13:23:07;20.20;99.90
21184;DHT22;18176;49.502;11.754;2022-11-15T13:27:15;20.10;99.90
21184;DHT22;18176;49.502;11.754;2022-11-15T13:31:29;19.70;99.90
21184;DHT22;18176;49.502;11.754;2022-11-15T13:35:39;18.80;99.90
21184;DHT22;18176;49.502;11.754;2022-11-15T13:39:41;18.00;99.90
21184;DHT22;18176;49.502;11.754;2022-11-15T13:43:45;17.50;99.90
21184;DHT22;18176;49.502;11.754;2022-11-15T13:47:55;16.90;99.90
21184;DHT22;18176;49.502;11.754;2022-11-15T13:51:58;16.40;99.90
21184;DHT22;18176;49.502;11.754;2022-11-15T13:56:02;16.10;99.90
21184;DHT22;18176;49.502;11.754;2022-11-15T14:00:26;16.00;99.90
21184;DHT22;18176;49.502;11.754;2022-11-15T14:04:45;15.30;99.90
21184;DHT22;18176;49.502;11.754;2022-11-15T14:13:40;14.90;99.90
21184;DHT22;18176;49.502;11.754;2022-11-15T14:18:06;15.50;99.90
21184;DHT22;18176;49.502;11.754;2022-11-15T14:22:19;16.10;99.90
21184;DHT22;18176;49.502;11.754;2022-11-15T14:26:29;16.40;99.90
21184;DHT22;18176;49.502;11.754;2022-11-15T14:30:37;16.90;99.90
21184;DHT22;18176;49.502;11.754;2022-11-15T14:34:42;17.40;99.90
21184;DHT22;18176;49.502;11.754;2022-11-15T14:38:45;17.50;99.90
21184;DHT22;18176;49.502;11.754;2022-11-15T14:42:52;17.00;99.90
21184;DHT22;18176;49.502;11.754;2022-11-15T14:46:53;16.40;99.90
21184;DHT22;18176;49.502;11.754;2022-11-15T14:50:59;15.70;99.90
21184;DHT22;18176;49.502;11.754;2022-11-15T14:55:14;15.40;99.90
21184;DHT22;18176;49.502;11.754;2022-11-15T14:59:19;15.90;99.90
21184;DHT22;18176;49.502;11.754;2022-11-15T15:03:19;15.80;99.90
21184;DHT22;18176;49.502;11.754;2022-11-15T15:07:25;15.50;99.90
21184;DHT22;18176;49.502;11.754;2022-11-15T15:11:30;14.70;99.90
21184;DHT22;18176;49.502;11.754;2022-11-15T15:15:34;13.90;99.90
21184;DHT22;18176;49.502;11.754;2022-11-15T15:19:36;13.40;99.90
21184;DHT22;18176;49.502;11.754;2022-11-15T15:23:40;13.00;99.90
21184;DHT22;18176;49.502;11.754;2022-11-15T15:27:41;12.60;99.90
21184;DHT22;18176;49.502;11.754;2022-11-15T15:31:41;12.10;99.90
21184;DHT22;18176;49.502;11.754;2022-11-15T15:35:41;11.80;99.90
21184;DHT22;18176;49.502;11.754;2022-11-15T15:39:44;11.50;99.90
21184;DHT22;18176;49.502;11.754;2022-11-15T15:43:45;11.10;99.90
21184;DHT22;18176;49.502;11.754;2022-11-15T15:47:46;10.90;99.90
21184;DHT22;18176;49.502;11.754;2022-11-15T15:51:46;10.60;99.90
21184;DHT22;18176;49.502;11.754;2022-11-15T15:55:49;10.30;99.90
21184;DHT22;18176;49.502;11.754;2022-11-15T15:59:49;10.20;99.90
21184;DHT22;18176;49.502;11.754;2022-11-15T16:03:50;10.00;99.90
21184;DHT22;18176;49.502;11.754;2022-11-15T16:07:50;9.80;99.90
21184;DHT22;18176;49.502;11.754;2022-11-15T16:11:53;9.60;99.90
21184;DHT22;18176;49.502;11.754;2022-11-15T16:15:54;9.50;99.90
21184;DHT22;18176;49.502;11.754;2022-11-15T16:19:54;9.30;99.90
21184;DHT22;18176;49.502;11.754;2022-11-15T16:23:54;9.10;99.90
21184;DHT22;18176;49.502;11.754;2022-11-15T16:27:57;8.90;99.90
21184;DHT22;18176;49.502;11.754;2022-11-15T16:31:57;8.80;99.90
21184;DHT22;18176;49.502;11.754;2022-11-15T16:35:58;8.60;99.90
21184;DHT22;18176;49.502;11.754;2022-11-15T16:39:58;8.50;99.90
21184;DHT22;18176;49.502;11.754;2022-11-15T16:44:01;8.30;99.90
21184;DHT22;18176;49.502;11.754;2022-11-15T16:48:01;8.20;99.90
21184;DHT22;18176;49.502;11.754;2022-11-15T16:52:03;8.10;99.90
21184;DHT22;18176;49.502;11.754;2022-11-15T16:56:08;8.00;99.90
21184;DHT22;18176;49.502;11.754;2022-11-15T17:00:20;7.80;99.90
21184;DHT22;18176;49.502;11.754;2022-11-15T17:04:20;7.80;99.90
21184;DHT22;18176;49.502;11.754;2022-11-15T17:08:23;7.60;99.90
21184;DHT22;18176;49.502;11.754;2022-11-15T17:12:25;7.50;99.90
21184;DHT22;18176;49.502;11.754;2022-11-15T17:16:29;7.40;99.90
21184;DHT22;18176;49.502;11.754;2022-11-15T17:20:31;7.30;99.90
21184;DHT22;18176;49.502;11.754;2022-11-15T17:24:31;7.20;99.90
21184;DHT22;18176;49.502;11.754;2022-11-15T17:28:32;7.20;99.90
21184;DHT22;18176;49.502;11.754;2022-11-15T17:32:37;7.10;99.90
21184;DHT22;18176;49.502;11.754;2022-11-15T17:36:37;7.20;99.90
21184;DHT22;18176;49.502;11.754;2022-11-15T17:40:37;7.20;99.90
21184;DHT22;18176;49.502;11.754;2022-11-15T17:44:38;7.30;99.90
21184;DHT22;18176;49.502;11.754;2022-11-15T17:48:40;7.30;99.90
21184;DHT22;18176;49.502;11.754;2022-11-15T17:52:40;7.30;99.90
21184;DHT22;18176;49.502;11.754;2022-11-15T17:56:41;7.30;99.90
21184;DHT22;18176;49.502;11.754;2022-11-15T18:00:41;7.30;99.90
21184;DHT22;18176;49.502;11.754;2022-11-15T18:04:44;7.40;99.90
21184;DHT22;18176;49.502;11.754;2022-11-15T18:08:45;7.50;99.90
21184;DHT22;18176;49.502;11.754;2022-11-15T18:12:46;7.60;99.90
21184;DHT22;18176;49.502;11.754;2022-11-15T18:16:47;7.80;99.90
21184;DHT22;18176;49.502;11.754;2022-11-15T18:20:58;7.70;99.90
21184;DHT22;18176;49.502;11.754;2022-11-15T18:25:00;7.70;99.90
21184;DHT22;18176;49.502;11.754;2022-11-15T18:29:02;7.60;99.90
21184;DHT22;18176;49.502;11.754;2022-11-15T18:33:03;7.40;99.90
21184;DHT22;18176;49.502;11.754;2022-11-15T18:37:06;7.20;99.90
21184;DHT22;18176;49.502;11.754;2022-11-15T18:41:08;6.90;99.90
21184;DHT22;18176;49.502;11.754;2022-11-15T18:45:10;6.90;99.90
21184;DHT22;18176;49.502;11.754;2022-11-15T18:49:12;7.00;99.90
21184;DHT22;18176;49.502;11.754;2022-11-15T18:53:18;7.00;99.90
21184;DHT22;18176;49.502;11.754;2022-11-15T18:57:18;7.10;99.90
21184;DHT22;18176;49.502;11.754;2022-11-15T19:01:20;7.00;99.90
21184;DHT22;18176;49.502;11.754;2022-11-15T19:05:22;6.90;99.90
21184;DHT22;18176;49.502;11.754;2022-11-15T19:09:24;6.80;99.90
21184;DHT22;18176;49.502;11.754;2022-11-15T19:13:28;6.80;99.90
21184;DHT22;18176;49.502;11.754;2022-11-15T19:17:30;6.70;99.90
21184;DHT22;18176;49.502;11.754;2022-11-15T19:21:33;6.60;99.90
21184;DHT22;18176;49.502;11.754;2022-11-15T19:25:36;6.50;99.90
21184;DHT22;18176;49.502;11.754;2022-11-15T19:29:37;6.50;99.90
21184;DHT22;18176;49.502;11.754;2022-11-15T19:33:38;6.50;99.90
21184;DHT22;18176;49.502;11.754;2022-11-15T19:37:39;6.50;99.90
21184;DHT22;18176;49.502;11.754;2022-11-15T19:41:43;6.60;99.90
21184;DHT22;18176;49.502;11.754;2022-11-15T19:45:51;6.70;99.90
21184;DHT22;18176;49.502;11.754;2022-11-15T19:49:58;6.70;99.90
21184;DHT22;18176;49.502;11.754;2022-11-15T19:53:59;6.70;99.90
21184;DHT22;18176;49.502;11.754;2022-11-15T19:58:05;6.70;99.90
21184;DHT22;18176;49.502;11.754;2022-11-15T20:02:05;6.60;99.90
21184;DHT22;18176;49.502;11.754;2022-11-15T20:06:09;6.50;99.90
21184;DHT22;18176;49.502;11.754;2022-11-15T20:10:11;6.40;99.90
21184;DHT22;18176;49.502;11.754;2022-11-15T20:14:19;6.30;99.90
21184;DHT22;18176;49.502;11.754;2022-11-15T20:18:20;6.20;99.90
21184;DHT22;18176;49.502;11.754;2022-11-15T20:22:24;6.10;99.90
21184;DHT22;18176;49.502;11.754;2022-11-15T20:26:24;6.10;99.90
21184;DHT22;18176;49.502;11.754;2022-11-15T20:30:28;6.10;99.90
21184;DHT22;18176;49.502;11.754;2022-11-15T20:34:28;6.10;99.90
21184;DHT22;18176;49.502;11.754;2022-11-15T20:38:29;6.10;99.90
21184;DHT22;18176;49.502;11.754;2022-11-15T20:42:31;6.10;99.90
21184;DHT22;18176;49.502;11.754;2022-11-15T20:46:34;6.10;99.90
21184;DHT22;18176;49.502;11.754;2022-11-15T20:50:34;6.10;99.90
21184;DHT22;18176;49.502;11.754;2022-11-15T20:54:39;6.00;99.90
21184;DHT22;18176;49.502;11.754;2022-11-15T20:58:39;6.00;99.90
21184;DHT22;18176;49.502;11.754;2022-11-15T21:02:44;5.90;99.90
21184;DHT22;18176;49.502;11.754;2022-11-15T21:06:44;5.80;99.90
21184;DHT22;18176;49.502;11.754;2022-11-15T21:10:48;5.80;99.90
21184;DHT22;18176;49.502;11.754;2022-11-15T21:15:07;5.70;99.90
21184;DHT22;18176;49.502;11.754;2022-11-15T21:19:11;5.70;99.90
21184;DHT22;18176;49.502;11.754;2022-11-15T21:23:11;5.60;99.90
21184;DHT22;18176;49.502;11.754;2022-11-15T21:27:11;5.50;99.90
21184;DHT22;18176;49.502;11.754;2022-11-15T21:31:11;5.40;99.90
21184;DHT22;18176;49.502;11.754;2022-11-15T21:35:14;5.40;99.90
21184;DHT22;18176;49.502;11.754;2022-11-15T21:39:15;5.40;99.90
21184;DHT22;18176;49.502;11.754;2022-11-15T21:43:15;5.30;99.90
21184;DHT22;18176;49.502;11.754;2022-11-15T21:47:15;5.30;99.90
21184;DHT22;18176;49.502;11.754;2022-11-15T21:51:18;5.30;99.90
21184;DHT22;18176;49.502;11.754;2022-11-15T21:55:18;5.30;99.90
21184;DHT22;18176;49.502;11.754;2022-11-15T21:59:18;5.30;99.90
21184;DHT22;18176;49.502;11.754;2022-11-15T22:03:18;5.30;99.90
21184;DHT22;18176;49.502;11.754;2022-11-15T22:07:21;5.30;99.90
21184;DHT22;18176;49.502;11.754;2022-11-15T22:11:21;5.20;99.90
21184;DHT22;18176;49.502;11.754;2022-11-15T22:15:22;5.10;99.90
21184;DHT22;18176;49.502;11.754;2022-11-15T22:19:22;5.10;99.90
21184;DHT22;18176;49.502;11.754;2022-11-15T22:23:26;5.00;99.90
21184;DHT22;18176;49.502;11.754;2022-11-15T22:27:27;4.90;99.90
21184;DHT22;18176;49.502;11.754;2022-11-15T22:31:28;4.90;99.90
21184;DHT22;18176;49.502;11.754;2022-11-15T22:35:28;4.80;99.90
21184;DHT22;18176;49.502;11.754;2022-11-15T22:39:31;4.70;99.90
21184;DHT22;18176;49.502;11.754;2022-11-15T22:43:31;4.70;99.90
21184;DHT22;18176;49.502;11.754;2022-11-15T22:47:32;4.70;99.90
21184;DHT22;18176;49.502;11.754;2022-11-15T22:51:32;4.50;99.90
21184;DHT22;18176;49.502;11.754;2022-11-15T22:55:38;4.50;99.90
21184;DHT22;18176;49.502;11.754;2022-11-15T22:59:38;4.50;99.90
21184;DHT22;18176;49.502;11.754;2022-11-15T23:03:38;4.40;99.90
21184;DHT22;18176;49.502;11.754;2022-11-15T23:07:39;4.40;99.90
21184;DHT22;18176;49.502;11.754;2022-11-15T23:11:42;4.40;99.90
21184;DHT22;18176;49.502;11.754;2022-11-15T23:16:01;4.30;99.90
21184;DHT22;18176;49.502;11.754;2022-11-15T23:20:16;4.20;99.90
21184;DHT22;18176;49.502;11.754;2022-11-15T23:24:36;4.20;99.90
21184;DHT22;18176;49.502;11.754;2022-11-15T23:28:39;4.10;99.90
21184;DHT22;18176;49.502;11.754;2022-11-15T23:32:39;4.00;99.90
21184;DHT22;18176;49.502;11.754;2022-11-15T23:36:52;3.90;99.90
21184;DHT22;18176;49.502;11.754;2022-11-15T23:40:53;3.80;99.90
21184;DHT22;18176;49.502;11.754;2022-11-15T23:44:56;3.70;99.90
21184;DHT22;18176;49.502;11.754;2022-11-15T23:48:57;3.60;99.90
21184;DHT22;18176;49.502;11.754;2022-11-15T23:52:57;3.50;99.90
21184;DHT22;18176;49.502;11.754;2022-11-15T23:56:57;3.50;99.90
